Marfret Guyane — FNMV — position and weather

sailwx.info

Track history (hours):
 
Tides and Currents Weather Stations Pressure Air Temp Water Temp Dewpoint Dewpoint Depression Visibility Wind Speed Wind Dir Waves Ship Positions

Marfret Guyane

Last reported at 2015-Sep-04 07:33 UTC. Time now 2015-Sep-04 07:56 UTC.
Position N 51°59' E 004°03'.

Length 170 m; draft 7.3 m.

Type: Ship (hazmat cat A). MMSI: 226324000.

Date/timePositionNaut miles runAvg speedWind from/ knotsBaromVisibWave heightAir tempDewpointWater temp
2015-Sep-04 07:33N 51°59' E 004°03'10 9.8
2015-Sep-04 06:33N 51°54' E 004°17'6 2.9
2015-Sep-04 04:32N 51°54' E 004°26'0 0.0
2015-Sep-04 03:32N 51°54' E 004°26'0 0.0
2015-Sep-04 02:32N 51°54' E 004°26'0 0.0
2015-Sep-04 01:32N 51°54' E 004°26'0 0.0
2015-Sep-04 00:32N 51°54' E 004°26'0 0.0
2015-Sep-03 23:32N 51°54' E 004°26'0 0.0
2015-Sep-03 22:32N 51°54' E 004°26'0 0.0
2015-Sep-03 21:32N 51°54' E 004°26'0 0.0
2015-Sep-03 20:32N 51°53' E 004°26'0 0.0
2015-Sep-03 19:32N 51°54' E 004°26'0 0.0
2015-Sep-03 18:32N 51°54' E 004°26'0 0.0
2015-Sep-03 17:32N 51°54' E 004°26'0 0.0
2015-Sep-03 16:32N 51°53' E 004°26'0 0.0
2015-Sep-03 15:32N 51°54' E 004°26'0 0.0
2015-Sep-03 14:32N 51°54' E 004°26'0 0.3
2015-Sep-03 13:33N 51°54' E 004°26'6 6.0
2015-Sep-03 12:33N 51°54' E 004°17'1010.2
2015-Sep-03 11:33N 51°59' E 004°02'10 9.7
2015-Sep-03 10:33N 51°59' E 003°47'1514.8
2015-Sep-03 09:33N 51°55' E 003°23'3817.1
2015-Sep-03 07:19N 51°38' E 002°28'1317.7
2015-Sep-03 06:33N 51°29' E 002°13'1818.0
2015-Sep-03 05:33N 51°16' E 001°53'1615.6
2015-Sep-03 04:33N 51°03' E 001°37'1515.2
2015-Sep-03 03:33N 50°50' E 001°25'1514.5
2015-Sep-03 02:32N 50°38' E 001°13'1414.2
2015-Sep-03 01:33N 50°30' E 000°55'2114.5
2015-Sep-03 00:07N 50°23' E 000°24'  
2015-Aug-31 19:33N 39°20' W 009°51'1818.5
2015-Aug-31 18:33N 39°02' W 009°51'1818.1
2015-Aug-31 17:33N 38°44' W 009°52'1818.1
2015-Aug-31 16:33N 38°27' W 009°45'1919.2
2015-Aug-31 15:33N 38°08' W 009°41'1919.4
2015-Aug-31 14:33N 37°49' W 009°36'1919.2
2015-Aug-31 13:33N 37°30' W 009°30'1918.6
2015-Aug-31 12:31N 37°11' W 009°25'4116.7
2015-Aug-31 10:06N 36°40' W 008°52'1118.8
2015-Aug-31 09:31N 36°37' W 008°39'1819.2
2015-Aug-31 08:33N 36°31' W 008°18'1919.5
2015-Aug-31 07:33N 36°25' W 007°55'1919.2
2015-Aug-31 06:33N 36°19' W 007°32'2718.9
2015-Aug-31 05:07N 36°11' W 006°60'1219.1
2015-Aug-31 04:29N 36°07' W 006°46'  
Track history (hours):
 
Tides and Currents Weather Stations Pressure Air Temp Water Temp Dewpoint Dewpoint Depression Visibility Wind Speed Wind Dir Waves Ship Positions

Marfret Guyane

Last reported at 2015-Sep-04 07:33 UTC. Time now 2015-Sep-04 07:56 UTC.
Position N 51°59' E 004°03'.

Length 170 m; draft 7.3 m.

Type: Ship (hazmat cat A). MMSI: 226324000.

Date/timePositionNaut miles runAvg speedWind from/ knotsBaromVisibWave heightAir tempDewpointWater temp
2015-Sep-04 07:33N 51°59' E 004°03'10 9.8
2015-Sep-04 06:33N 51°54' E 004°17'6 2.9
2015-Sep-04 04:32N 51°54' E 004°26'0 0.0
2015-Sep-04 03:32N 51°54' E 004°26'0 0.0
2015-Sep-04 02:32N 51°54' E 004°26'0 0.0
2015-Sep-04 01:32N 51°54' E 004°26'0 0.0
2015-Sep-04 00:32N 51°54' E 004°26'0 0.0
2015-Sep-03 23:32N 51°54' E 004°26'0 0.0
2015-Sep-03 22:32N 51°54' E 004°26'0 0.0
2015-Sep-03 21:32N 51°54' E 004°26'0 0.0
2015-Sep-03 20:32N 51°53' E 004°26'0 0.0
2015-Sep-03 19:32N 51°54' E 004°26'0 0.0
2015-Sep-03 18:32N 51°54' E 004°26'0 0.0
2015-Sep-03 17:32N 51°54' E 004°26'0 0.0
2015-Sep-03 16:32N 51°53' E 004°26'0 0.0
2015-Sep-03 15:32N 51°54' E 004°26'0 0.0
2015-Sep-03 14:32N 51°54' E 004°26'0 0.3
2015-Sep-03 13:33N 51°54' E 004°26'6 6.0
2015-Sep-03 12:33N 51°54' E 004°17'1010.2
2015-Sep-03 11:33N 51°59' E 004°02'10 9.7
2015-Sep-03 10:33N 51°59' E 003°47'1514.8
2015-Sep-03 09:33N 51°55' E 003°23'3817.1
2015-Sep-03 07:19N 51°38' E 002°28'1317.7
2015-Sep-03 06:33N 51°29' E 002°13'1818.0
2015-Sep-03 05:33N 51°16' E 001°53'1615.6
2015-Sep-03 04:33N 51°03' E 001°37'1515.2
2015-Sep-03 03:33N 50°50' E 001°25'1514.5
2015-Sep-03 02:32N 50°38' E 001°13'1414.2
2015-Sep-03 01:33N 50°30' E 000°55'2114.5
2015-Sep-03 00:07N 50°23' E 000°24'  
2015-Aug-31 19:33N 39°20' W 009°51'1818.5
2015-Aug-31 18:33N 39°02' W 009°51'1818.1
2015-Aug-31 17:33N 38°44' W 009°52'1818.1
2015-Aug-31 16:33N 38°27' W 009°45'1919.2
2015-Aug-31 15:33N 38°08' W 009°41'1919.4
2015-Aug-31 14:33N 37°49' W 009°36'1919.2
2015-Aug-31 13:33N 37°30' W 009°30'1918.6
2015-Aug-31 12:31N 37°11' W 009°25'4116.7
2015-Aug-31 10:06N 36°40' W 008°52'1118.8
2015-Aug-31 09:31N 36°37' W 008°39'1819.2
2015-Aug-31 08:33N 36°31' W 008°18'1919.5
2015-Aug-31 07:33N 36°25' W 007°55'1919.2
2015-Aug-31 06:33N 36°19' W 007°32'2718.9
2015-Aug-31 05:07N 36°11' W 006°60'1219.1
2015-Aug-31 04:29N 36°07' W 006°46'  

Dump ship's entire track history